Terminal Aerodrome Forecast
Issued by NWS

Home | Current Version | Previous Version | Text Only | Print | Product List | Glossary On
Versions: 1 2 3 4 5 6 7 8 9 10 11 12 13 14 15 16 17 18
831
FTUS46 KMTR 221130
TAFSTS
TAF
KSTS 221130Z 2212/2312 15020G30KT 2SM +RA BR OVC015 WS020/17050KT
     FM221300 17010KT 2SM RA BR OVC010
     FM221400 17005KT 5SM -RA BR OVC010
     FM221700 19006KT P6SM SCT020 BKN050
     FM222200 24006KT P6SM VCSH BKN040
     FM230400 VRB03KT P6SM VCSH BKN040=

USA.gov is the U.S. government's official web portal to all federal, state and local government web resources and services.